Time;durP1;ratioP1;P1;durP2;ratioP2;P2;SDS_P1;SDS_P2;PMS_P1;PMS_P2;Temp;Humidity;BMP_temperature;BMP_pressure;BME280_temperature;BME280_humidity;BME280_pressure;Samples;Min_cycle;Max_cycle;Signal;HPM_P1;HPM_P2
2022/05/22 00:02:01;;;;;;;0.30;0.15;;;;;;;;;;4955101;28;20118;-79
2022/05/22 00:04:26;;;;;;;0.55;0.20;;;;;;;;;;4956336;28;20140;-78
2022/05/22 00:06:52;;;;;;;0.63;0.45;;;;;;;;;;4966223;28;20104;-80
2022/05/22 00:09:17;;;;;;;0.40;0.20;;;;;;;;;;4955119;28;20047;-80
2022/05/22 00:11:43;;;;;;;0.20;0.20;;;;;;;;;;4949146;28;20035;-80
2022/05/22 00:14:11;;;;;;;0.68;0.47;;;;;;;;;;4966431;28;20117;-79
2022/05/22 00:16:37;;;;;;;0.30;0.20;;;;;;;;;;4957241;28;20498;-80
2022/05/22 00:19:04;;;;;;;0.32;0.30;;;;;;;;;;4966567;28;20046;-80
2022/05/22 00:21:30;;;;;;;0.68;0.40;;;;;;;;;;4954750;28;20026;-80
2022/05/22 00:23:55;;;;;;;0.20;0.20;;;;;;;;;;4947504;28;20061;-80
2022/05/22 00:26:20;;;;;;;1.92;0.77;;;;;;;;;;4950856;28;20251;-78
2022/05/22 00:28:46;;;;;;;0.52;0.52;;;;;;;;;;4967047;28;20486;-80
2022/05/22 00:31:11;;;;;;;1.25;0.52;;;;;;;;;;4954627;28;20043;-81
2022/05/22 00:33:36;;;;;;;0.63;0.45;;;;;;;;;;4971422;28;20086;-82
2022/05/22 00:36:03;;;;;;;0.50;0.20;;;;;;;;;;4967093;28;20030;-79
2022/05/22 00:38:28;;;;;;;1.85;0.63;;;;;;;;;;4969024;28;20108;-78
2022/05/22 00:40:53;;;;;;;6.18;1.05;;;;;;;;;;4965709;28;20038;-80
2022/05/22 00:43:29;;;;;;;0.40;0.20;;;;;;;;;;4950053;28;20065;-79
2022/05/22 00:45:55;;;;;;;1.63;0.75;;;;;;;;;;4969138;28;20038;-79
2022/05/22 00:48:20;;;;;;;0.10;0.10;;;;;;;;;;4967938;28;20061;-78
2022/05/22 00:50:46;;;;;;;0.22;0.20;;;;;;;;;;4954042;28;20030;-81
2022/05/22 00:53:11;;;;;;;0.38;0.30;;;;;;;;;;4948569;28;20069;-79
2022/05/22 00:55:37;;;;;;;1.50;0.70;;;;;;;;;;4980254;28;20042;-82
2022/05/22 00:58:07;;;;;;;0.30;0.20;;;;;;;;;;4951929;28;20394;-79
2022/05/22 01:00:35;;;;;;;0.30;0.20;;;;;;;;;;4967734;28;20041;-79
2022/05/22 01:05:49;;;;;;;0.52;0.35;;;;;;;;;;4969738;28;20041;-80
2022/05/22 01:08:15;;;;;;;1.48;0.47;;;;;;;;;;4954294;28;20046;-79
2022/05/22 01:10:46;;;;;;;1.00;0.52;;;;;;;;;;4964150;28;20080;-79
2022/05/22 01:13:14;;;;;;;0.30;0.20;;;;;;;;;;4956078;28;20496;-81
2022/05/22 01:15:39;;;;;;;0.40;0.40;;;;;;;;;;4953571;28;20097;-78
2022/05/22 01:18:05;;;;;;;0.30;0.20;;;;;;;;;;4946604;28;20980;-79
2022/05/22 01:20:30;;;;;;;1.60;0.75;;;;;;;;;;4954615;28;20039;-77
2022/05/22 01:22:55;;;;;;;2.15;0.60;;;;;;;;;;4964080;28;20173;-79
2022/05/22 01:25:21;;;;;;;0.40;0.30;;;;;;;;;;4955239;28;20042;-79
2022/05/22 01:27:46;;;;;;;0.20;0.20;;;;;;;;;;4952190;28;20122;-79
2022/05/22 01:30:13;;;;;;;0.60;0.30;;;;;;;;;;4965188;28;20046;-82
2022/05/22 01:32:41;;;;;;;0.70;0.43;;;;;;;;;;4953306;28;20108;-80
2022/05/22 01:35:07;;;;;;;0.68;0.43;;;;;;;;;;4968546;28;20100;-79
2022/05/22 01:37:33;;;;;;;0.35;0.22;;;;;;;;;;4953331;28;20376;-79
2022/05/22 01:39:58;;;;;;;1.08;0.43;;;;;;;;;;4949505;28;20030;-79
2022/05/22 01:42:23;;;;;;;0.10;0.10;;;;;;;;;;4969276;28;20038;-79
2022/05/22 01:44:48;;;;;;;0.75;0.30;;;;;;;;;;4951117;28;20046;-79
2022/05/22 01:47:14;;;;;;;0.70;0.40;;;;;;;;;;4966619;28;20027;-79
2022/05/22 01:49:39;;;;;;;0.32;0.22;;;;;;;;;;4955750;28;20057;-79
2022/05/22 01:52:04;;;;;;;0.32;0.30;;;;;;;;;;4954908;28;20108;-78
2022/05/22 01:54:30;;;;;;;0.90;0.57;;;;;;;;;;4953783;28;24724;-79
2022/05/22 01:56:55;;;;;;;0.77;0.63;;;;;;;;;;4952855;28;20121;-79
2022/05/22 01:59:20;;;;;;;0.30;0.28;;;;;;;;;;4956194;28;20058;-78
2022/05/22 02:01:45;;;;;;;0.43;0.20;;;;;;;;;;4964890;28;20058;-80
2022/05/22 02:04:11;;;;;;;0.20;0.20;;;;;;;;;;4951275;28;20125;-80
2022/05/22 02:08:19;;;;;;;1.92;0.68;;;;;;;;;;4954493;28;20039;-81
2022/05/22 02:09:24;;;;;;;0.45;0.20;;;;;;;;;;4972924;28;20034;-78
2022/05/22 02:11:49;;;;;;;0.10;0.10;;;;;;;;;;4953797;28;20044;-80
2022/05/22 02:14:14;;;;;;;0.13;0.13;;;;;;;;;;4968244;28;20062;-79
2022/05/22 02:16:40;;;;;;;0.73;0.50;;;;;;;;;;4950026;28;20038;-79
2022/05/22 02:19:05;;;;;;;0.38;0.20;;;;;;;;;;4955580;28;20045;-79
2022/05/22 02:21:32;;;;;;;0.40;0.30;;;;;;;;;;4965555;28;20065;-79
2022/05/22 02:23:57;;;;;;;0.63;0.47;;;;;;;;;;4969371;28;20071;-79
2022/05/22 02:26:22;;;;;;;0.30;0.20;;;;;;;;;;4960022;28;20034;-80
2022/05/22 02:28:48;;;;;;;0.30;0.20;;;;;;;;;;4958819;28;20047;-78
2022/05/22 02:31:13;;;;;;;5.07;1.00;;;;;;;;;;4969095;28;20132;-79
2022/05/22 02:33:38;;;;;;;2.55;0.75;;;;;;;;;;4956045;28;20035;-78
2022/05/22 02:36:06;;;;;;;0.57;0.30;;;;;;;;;;4969002;28;20049;-78
2022/05/22 02:38:31;;;;;;;;;;;;;;;;;;4961124;28;20038;-79
2022/05/22 02:40:57;;;;;;;0.90;0.52;;;;;;;;;;4967085;28;19921;-79
2022/05/22 02:43:22;;;;;;;1.40;0.70;;;;;;;;;;4968883;28;20115;-79
2022/05/22 02:45:48;;;;;;;1.65;0.40;;;;;;;;;;4968471;28;20042;-80
2022/05/22 02:48:13;;;;;;;0.47;0.30;;;;;;;;;;4949684;28;20090;-79
2022/05/22 02:50:39;;;;;;;0.47;0.30;;;;;;;;;;4967688;28;20046;-80
2022/05/22 02:53:04;;;;;;;0.82;0.30;;;;;;;;;;4969515;28;20149;-80
2022/05/22 02:55:30;;;;;;;1.75;0.70;;;;;;;;;;4956072;28;20494;-81
2022/05/22 02:57:55;;;;;;;0.88;0.25;;;;;;;;;;4956801;28;20043;-81
2022/05/22 03:00:23;;;;;;;0.50;0.30;;;;;;;;;;4968238;28;20042;-80
2022/05/22 03:02:50;;;;;;;1.10;0.43;;;;;;;;;;4949231;28;20121;-79
2022/05/22 03:05:15;;;;;;;1.95;0.88;;;;;;;;;;4956902;28;20100;-79
2022/05/22 03:07:40;;;;;;;5.72;0.93;;;;;;;;;;4956564;28;20046;-78
2022/05/22 03:10:09;;;;;;;0.32;0.20;;;;;;;;;;4969381;28;20041;-82
2022/05/22 03:12:35;;;;;;;0.30;0.20;;;;;;;;;;4953548;28;20034;-79
2022/05/22 03:15:01;;;;;;;1.20;0.65;;;;;;;;;;4954111;28;20386;-82
2022/05/22 03:17:26;;;;;;;0.55;0.22;;;;;;;;;;4965244;28;20082;-80
2022/05/22 03:19:52;;;;;;;0.40;0.20;;;;;;;;;;4952599;28;20045;-78
2022/05/22 03:22:17;;;;;;;1.38;0.82;;;;;;;;;;4961996;28;20104;-80
2022/05/22 03:24:43;;;;;;;0.50;0.30;;;;;;;;;;4949000;28;20070;-80
2022/05/22 03:27:12;;;;;;;0.25;0.20;;;;;;;;;;4958006;28;20036;-80
2022/05/22 03:29:38;;;;;;;1.65;0.85;;;;;;;;;;4950379;28;20070;-79
2022/05/22 03:32:04;;;;;;;0.60;0.32;;;;;;;;;;4973034;28;20084;-80
2022/05/22 03:34:29;;;;;;;0.63;0.28;;;;;;;;;;4957523;28;20038;-79
2022/05/22 03:36:55;;;;;;;0.38;0.30;;;;;;;;;;4953777;28;20145;-79
2022/05/22 03:39:21;;;;;;;0.20;0.17;;;;;;;;;;4955418;28;20396;-79
2022/05/22 03:41:46;;;;;;;0.82;0.40;;;;;;;;;;4955892;28;20121;-79
2022/05/22 03:44:11;;;;;;;0.80;0.43;;;;;;;;;;4953034;28;20038;-81
2022/05/22 03:46:37;;;;;;;0.40;0.30;;;;;;;;;;4954279;28;20497;-78
2022/05/22 03:49:02;;;;;;;0.57;0.40;;;;;;;;;;4948798;28;20049;-79
2022/05/22 03:51:28;;;;;;;1.73;0.70;;;;;;;;;;4955243;28;20899;-79
2022/05/22 03:53:53;;;;;;;0.57;0.43;;;;;;;;;;4958655;28;20042;-79
2022/05/22 03:56:20;;;;;;;2.05;0.47;;;;;;;;;;4971640;28;20958;-79
2022/05/22 03:58:45;;;;;;;0.28;0.22;;;;;;;;;;4955083;28;20510;-79
2022/05/22 04:01:11;;;;;;;0.52;0.40;;;;;;;;;;4956231;28;20035;-79
2022/05/22 04:03:37;;;;;;;2.05;0.30;;;;;;;;;;4953788;28;20047;-81
2022/05/22 04:06:04;;;;;;;2.13;0.47;;;;;;;;;;4980713;28;20508;-82
2022/05/22 04:08:30;;;;;;;0.20;0.20;;;;;;;;;;4965649;28;20402;-80
2022/05/22 04:10:56;;;;;;;0.52;0.30;;;;;;;;;;4953055;28;20108;-80
2022/05/22 04:13:24;;;;;;;0.30;0.20;;;;;;;;;;4952087;28;20035;-80
2022/05/22 04:15:50;;;;;;;0.22;0.22;;;;;;;;;;4946426;28;20122;-79
2022/05/22 04:18:15;;;;;;;0.17;0.17;;;;;;;;;;4954167;28;20105;-80
2022/05/22 04:20:41;;;;;;;0.32;0.28;;;;;;;;;;4949476;28;20797;-80
2022/05/22 04:25:58;;;;;;;0.20;0.20;;;;;;;;;;4965486;28;20191;-80
2022/05/22 04:28:24;;;;;;;0.47;0.30;;;;;;;;;;4965320;28;20043;-80
2022/05/22 04:30:50;;;;;;;1.83;0.47;;;;;;;;;;4968914;28;20034;-79
2022/05/22 04:33:16;;;;;;;1.40;0.68;;;;;;;;;;4954957;28;20039;-79
2022/05/22 04:35:43;;;;;;;0.98;0.50;;;;;;;;;;4955845;28;20086;-81
2022/05/22 04:38:09;;;;;;;0.20;0.20;;;;;;;;;;4957247;28;20030;-81
2022/05/22 04:40:34;;;;;;;0.40;0.30;;;;;;;;;;4942417;28;20045;-81
2022/05/22 04:43:01;;;;;;;0.30;0.20;;;;;;;;;;4956073;28;20035;-80
2022/05/22 04:45:26;;;;;;;0.20;0.20;;;;;;;;;;4954979;28;21179;-85
2022/05/22 04:47:51;;;;;;;0.20;0.20;;;;;;;;;;4955318;28;20038;-82
2022/05/22 04:50:17;;;;;;;0.60;0.20;;;;;;;;;;4953764;28;20085;-82
2022/05/22 04:52:42;;;;;;;0.28;0.20;;;;;;;;;;4956502;28;20064;-82
2022/05/22 04:55:09;;;;;;;1.02;0.52;;;;;;;;;;4953211;28;20038;-84
2022/05/22 04:57:35;;;;;;;0.43;0.28;;;;;;;;;;4968414;28;20610;-82
2022/05/22 05:00:00;;;;;;;0.30;0.20;;;;;;;;;;4953365;28;20035;-83
2022/05/22 05:02:26;;;;;;;0.52;0.25;;;;;;;;;;4953182;28;20481;-85
2022/05/22 05:04:55;;;;;;;0.30;0.20;;;;;;;;;;4926934;28;20047;-83
2022/05/22 05:07:21;;;;;;;0.47;0.35;;;;;;;;;;4946619;28;20039;-83
2022/05/22 05:09:47;;;;;;;0.73;0.52;;;;;;;;;;4932144;28;20094;-83
2022/05/22 05:12:12;;;;;;;1.67;0.85;;;;;;;;;;4933310;28;20031;-82
2022/05/22 05:14:37;;;;;;;0.22;0.20;;;;;;;;;;4919230;28;20058;-82
2022/05/22 05:17:10;;;;;;;0.55;0.38;;;;;;;;;;4943904;28;20429;-84
2022/05/22 05:19:35;;;;;;;0.40;0.40;;;;;;;;;;4934460;28;20043;-83
2022/05/22 05:22:00;;;;;;;0.30;0.22;;;;;;;;;;4927507;28;20042;-84
2022/05/22 05:24:26;;;;;;;1.02;0.47;;;;;;;;;;4949973;28;20036;-81
2022/05/22 05:26:54;;;;;;;0.38;0.22;;;;;;;;;;4926359;28;20517;-83
2022/05/22 05:29:19;;;;;;;1.25;0.75;;;;;;;;;;4932198;28;20042;-85
2022/05/22 05:31:45;;;;;;;0.30;0.20;;;;;;;;;;4922748;28;20043;-83
2022/05/22 05:34:10;;;;;;;0.45;0.28;;;;;;;;;;4947860;28;20451;-84
2022/05/22 05:36:36;;;;;;;0.35;0.30;;;;;;;;;;4924241;28;20040;-82
2022/05/22 05:39:02;;;;;;;0.50;0.30;;;;;;;;;;4931236;28;20040;-84
2022/05/22 05:41:28;;;;;;;0.47;0.32;;;;;;;;;;4944905;28;20043;-82
2022/05/22 05:43:53;;;;;;;0.50;0.40;;;;;;;;;;4930156;28;20043;-82
2022/05/22 05:46:18;;;;;;;1.00;0.35;;;;;;;;;;4930214;28;20063;-83
2022/05/22 05:48:43;;;;;;;0.88;0.40;;;;;;;;;;4930441;28;20051;-83
2022/05/22 05:51:12;;;;;;;0.50;0.40;;;;;;;;;;4933059;28;20437;-83
2022/05/22 05:53:37;;;;;;;1.15;0.40;;;;;;;;;;4931897;28;20047;-83
2022/05/22 05:56:04;;;;;;;1.73;0.63;;;;;;;;;;4931144;28;20042;-82
2022/05/22 05:58:29;;;;;;;0.45;0.20;;;;;;;;;;4929977;28;20046;-83
2022/05/22 06:00:55;;;;;;;0.40;0.30;;;;;;;;;;4946685;28;20042;-83
2022/05/22 06:03:20;;;;;;;1.48;0.57;;;;;;;;;;4941978;28;20498;-83
2022/05/22 06:05:45;;;;;;;0.45;0.22;;;;;;;;;;4965479;28;20040;-84
2022/05/22 06:08:10;;;;;;;1.25;0.77;;;;;;;;;;4950375;28;20157;-84
2022/05/22 06:10:37;;;;;;;0.80;0.38;;;;;;;;;;4953447;28;20126;-83
2022/05/22 06:13:03;;;;;;;1.53;0.77;;;;;;;;;;4949528;28;20031;-85
2022/05/22 06:15:28;;;;;;;0.10;0.10;;;;;;;;;;4965937;28;20495;-84
2022/05/22 06:17:56;;;;;;;0.40;0.20;;;;;;;;;;4949817;28;20038;-84
2022/05/22 06:20:22;;;;;;;1.23;0.47;;;;;;;;;;4953695;28;20096;-83
2022/05/22 06:22:47;;;;;;;1.13;0.40;;;;;;;;;;4946066;28;20030;-84
2022/05/22 06:25:14;;;;;;;0.93;0.40;;;;;;;;;;4961205;28;20039;-82
2022/05/22 06:27:43;;;;;;;0.80;0.25;;;;;;;;;;4955885;28;20065;-83
2022/05/22 06:30:12;;;;;;;2.83;0.40;;;;;;;;;;4934326;28;20149;-84
2022/05/22 06:32:41;;;;;;;1.25;0.40;;;;;;;;;;4952456;28;20070;-84
2022/05/22 06:35:09;;;;;;;0.13;0.10;;;;;;;;;;4952146;28;20089;-85
2022/05/22 06:37:34;;;;;;;0.13;0.13;;;;;;;;;;4953239;28;20046;-85
2022/05/22 06:39:59;;;;;;;0.52;0.43;;;;;;;;;;4949110;28;20042;-84
2022/05/22 06:42:34;;;;;;;0.57;0.30;;;;;;;;;;4953147;28;20035;-85
2022/05/22 06:45:11;;;;;;;0.38;0.20;;;;;;;;;;4951641;28;20035;-83
2022/05/22 06:47:36;;;;;;;0.90;0.30;;;;;;;;;;4957095;28;20046;-84
2022/05/22 06:50:05;;;;;;;0.45;0.30;;;;;;;;;;4954506;28;20051;-84
2022/05/22 06:52:32;;;;;;;6.43;0.85;;;;;;;;;;4945772;28;20139;-84
2022/05/22 06:54:58;;;;;;;0.47;0.30;;;;;;;;;;4951364;28;20046;-84
2022/05/22 06:57:23;;;;;;;0.38;0.20;;;;;;;;;;4949327;28;20099;-84
2022/05/22 06:59:53;;;;;;;0.25;0.22;;;;;;;;;;4950977;28;20581;-84
2022/05/22 07:02:18;;;;;;;0.85;0.50;;;;;;;;;;4954397;28;20498;-84
2022/05/22 07:04:44;;;;;;;0.68;0.38;;;;;;;;;;4942593;28;20060;-83
2022/05/22 07:07:09;;;;;;;1.55;0.68;;;;;;;;;;4929904;28;20031;-84
2022/05/22 07:09:35;;;;;;;0.75;0.35;;;;;;;;;;4933254;28;20047;-85
2022/05/22 07:12:01;;;;;;;0.75;0.32;;;;;;;;;;4933613;28;20043;-84
2022/05/22 07:14:28;;;;;;;0.22;0.10;;;;;;;;;;4929760;28;20043;-84
2022/05/22 07:16:54;;;;;;;1.35;0.30;;;;;;;;;;4950301;28;20050;-85
2022/05/22 07:19:20;;;;;;;0.47;0.28;;;;;;;;;;4932369;28;20035;-84
2022/05/22 07:21:46;;;;;;;1.55;0.47;;;;;;;;;;4919852;28;20046;-84
2022/05/22 07:24:11;;;;;;;0.68;0.30;;;;;;;;;;4929566;28;20036;-88
2022/05/22 07:26:37;;;;;;;2.30;0.73;;;;;;;;;;4942616;28;20453;-88
2022/05/22 07:29:02;;;;;;;0.43;0.32;;;;;;;;;;4934377;28;20451;-87
2022/05/22 07:31:32;;;;;;;0.10;0.10;;;;;;;;;;4921787;28;20809;-85
2022/05/22 07:33:59;;;;;;;1.50;0.43;;;;;;;;;;4933048;28;20035;-87
2022/05/22 07:36:28;;;;;;;0.10;0.10;;;;;;;;;;4918869;28;20043;-87
2022/05/22 07:38:53;;;;;;;0.40;0.30;;;;;;;;;;4919175;28;20275;-88
2022/05/22 07:41:19;;;;;;;0.22;0.10;;;;;;;;;;4914027;28;20483;-88
2022/05/22 07:43:45;;;;;;;0.90;0.30;;;;;;;;;;4931831;28;20167;-86
2022/05/22 07:46:14;;;;;;;0.30;0.30;;;;;;;;;;4929774;28;20045;-88
2022/05/22 07:48:41;;;;;;;0.15;0.13;;;;;;;;;;4943689;28;20093;-87
2022/05/22 07:51:07;;;;;;;0.20;0.20;;;;;;;;;;4931827;28;20031;-88
2022/05/22 07:53:34;;;;;;;0.20;0.10;;;;;;;;;;4930843;28;20035;-83
2022/05/22 07:55:59;;;;;;;0.47;0.20;;;;;;;;;;4932826;28;20035;-84
2022/05/22 07:58:26;;;;;;;0.45;0.22;;;;;;;;;;4932943;28;20038;-86
2022/05/22 08:00:53;;;;;;;0.10;0.10;;;;;;;;;;4932143;28;20042;-82
2022/05/22 08:03:19;;;;;;;0.95;0.17;;;;;;;;;;4944956;28;20299;-82
2022/05/22 08:05:45;;;;;;;0.25;0.20;;;;;;;;;;4945852;28;20110;-81
2022/05/22 08:08:11;;;;;;;0.35;0.25;;;;;;;;;;4937226;28;20166;-83
2022/05/22 08:10:38;;;;;;;1.30;0.30;;;;;;;;;;4944412;28;20396;-82
2022/05/22 08:13:05;;;;;;;0.28;0.17;;;;;;;;;;4936764;28;20047;-83
2022/05/22 08:15:33;;;;;;;0.20;0.10;;;;;;;;;;4934731;28;20039;-80
2022/05/22 08:17:58;;;;;;;;;;;;;;;;;;4943977;28;20486;-82
2022/05/22 08:20:25;;;;;;;0.88;0.50;;;;;;;;;;4932065;28;19926;-80
2022/05/22 08:22:58;;;;;;;0.45;0.08;;;;;;;;;;4934887;28;20043;-80
2022/05/22 08:25:25;;;;;;;0.35;0.22;;;;;;;;;;4925151;28;20031;-77
2022/05/22 08:27:51;;;;;;;1.30;0.28;;;;;;;;;;4931707;28;20059;-79
2022/05/22 08:30:18;;;;;;;0.10;0.10;;;;;;;;;;4932641;28;20106;-79
2022/05/22 08:32:47;;;;;;;0.20;0.10;;;;;;;;;;4944490;28;20040;-79
2022/05/22 08:35:15;;;;;;;0.15;0.15;;;;;;;;;;4926209;28;20042;-82
2022/05/22 08:37:41;;;;;;;1.00;0.30;;;;;;;;;;4926336;28;20518;-79
2022/05/22 08:40:08;;;;;;;0.98;0.20;;;;;;;;;;4931088;28;20881;-79
2022/05/22 08:42:41;;;;;;;2.42;0.28;;;;;;;;;;4930323;28;20066;-79
2022/05/22 08:45:13;;;;;;;0.35;0.20;;;;;;;;;;4927731;28;20034;-79
2022/05/22 08:47:45;;;;;;;1.13;0.45;;;;;;;;;;4931585;28;20039;-80
2022/05/22 08:50:11;;;;;;;0.98;0.50;;;;;;;;;;4930644;28;20111;-78
2022/05/22 08:52:43;;;;;;;0.30;0.13;;;;;;;;;;4946745;28;20075;-83
2022/05/22 08:58:55;;;;;;;0.10;0.10;;;;;;;;;;4947416;28;20038;-82
2022/05/22 09:01:18;;;;;;;0.70;0.10;;;;;;;;;;4944009;28;20090;-85
2022/05/22 09:03:58;;;;;;;0.30;0.20;;;;;;;;;;4929591;28;20439;-84
2022/05/22 09:06:31;;;;;;;0.20;0.20;;;;;;;;;;4946455;28;20046;-85
2022/05/22 09:08:56;;;;;;;2.30;0.70;;;;;;;;;;4937278;28;20043;-84
2022/05/22 09:11:56;;;;;;;1.10;0.45;;;;;;;;;;4934091;28;20041;-87
2022/05/22 09:14:44;;;;;;;0.30;0.25;;;;;;;;;;4944149;28;20561;-85
2022/05/22 09:17:10;;;;;;;1.10;0.10;;;;;;;;;;4944890;28;20110;-84
2022/05/22 09:19:55;;;;;;;0.33;0.13;;;;;;;;;;4943376;28;20154;-84
2022/05/22 09:22:28;;;;;;;0.98;0.30;;;;;;;;;;4925481;28;20090;-83
2022/05/22 09:25:27;;;;;;;0.10;0.10;;;;;;;;;;4922950;28;20065;-81
2022/05/22 09:27:59;;;;;;;0.98;0.50;;;;;;;;;;4934820;28;20065;-84
2022/05/22 09:30:24;;;;;;;0.47;0.30;;;;;;;;;;4940652;28;20047;-84
2022/05/22 09:33:06;;;;;;;2.07;0.67;;;;;;;;;;4944339;28;20050;-80
2022/05/22 09:35:38;;;;;;;0.40;0.20;;;;;;;;;;4948961;28;21469;-81
2022/05/22 09:38:21;;;;;;;0.25;0.10;;;;;;;;;;4948493;28;20035;-81
2022/05/22 09:40:54;;;;;;;0.30;0.10;;;;;;;;;;4939894;28;20484;-85
2022/05/22 09:43:43;;;;;;;3.15;0.68;;;;;;;;;;4915240;28;20487;-81
2022/05/22 09:46:29;;;;;;;0.65;0.20;;;;;;;;;;4930810;28;20482;-81
2022/05/22 09:49:13;;;;;;;0.20;0.10;;;;;;;;;;4941213;28;20074;-82
2022/05/22 09:52:02;;;;;;;0.10;0.00;;;;;;;;;;4943554;28;20074;-82
2022/05/22 09:54:48;;;;;;;0.57;0.20;;;;;;;;;;4922986;28;20035;-80
2022/05/22 09:57:13;;;;;;;0.98;0.10;;;;;;;;;;4929976;28;20035;-82
2022/05/22 10:00:03;;;;;;;0.30;0.10;;;;;;;;;;4948373;28;20051;-82
2022/05/22 10:02:38;;;;;;;0.63;0.20;;;;;;;;;;4945746;28;20306;-82
2022/05/22 10:05:11;;;;;;;0.20;0.00;;;;;;;;;;4957597;28;20150;-86
2022/05/22 10:08:18;;;;;;;0.10;0.10;;;;;;;;;;4930265;28;20776;-79
2022/05/22 10:10:56;;;;;;;0.43;0.10;;;;;;;;;;4936177;28;20794;-80
2022/05/22 10:13:21;;;;;;;;;;;;;;;;;;4932828;28;20047;-84
2022/05/22 10:16:03;;;;;;;0.30;0.20;;;;;;;;;;4940756;28;19964;-85
2022/05/22 10:18:54;;;;;;;0.17;0.10;;;;;;;;;;4942143;28;20422;-86
2022/05/22 10:21:27;;;;;;;0.82;0.10;;;;;;;;;;4948284;28;20035;-83
2022/05/22 10:24:09;;;;;;;0.30;0.10;;;;;;;;;;4932729;28;20426;-84
2022/05/22 10:26:53;;;;;;;0.43;0.20;;;;;;;;;;4940210;28;20091;-83
2022/05/22 10:29:37;;;;;;;0.30;0.10;;;;;;;;;;4941887;28;20045;-85
2022/05/22 10:32:33;;;;;;;0.20;0.10;;;;;;;;;;4941661;28;23859;-85
2022/05/22 10:35:19;;;;;;;0.25;0.10;;;;;;;;;;4937971;28;20498;-85
2022/05/22 10:38:08;;;;;;;0.73;0.20;;;;;;;;;;4930296;28;20040;-85
2022/05/22 10:43:18;;;;;;;0.68;0.15;;;;;;;;;;4945943;28;20047;-84
2022/05/22 10:45:46;;;;;;;0.10;0.10;;;;;;;;;;4935664;28;20043;-84
2022/05/22 10:48:23;;;;;;;1.20;0.32;;;;;;;;;;4934145;28;20040;-84
2022/05/22 10:51:01;;;;;;;0.20;0.08;;;;;;;;;;4930814;28;20533;-84
2022/05/22 10:53:39;;;;;;;0.20;0.10;;;;;;;;;;4933010;28;20031;-84
2022/05/22 10:56:14;;;;;;;2.10;0.20;;;;;;;;;;4933409;28;20046;-84
2022/05/22 10:58:48;;;;;;;0.20;0.10;;;;;;;;;;4951533;28;20526;-84
2022/05/22 11:01:19;;;;;;;0.10;0.00;;;;;;;;;;4948128;28;20043;-83
2022/05/22 11:03:44;;;;;;;0.20;0.10;;;;;;;;;;4958873;28;20058;-86
2022/05/22 11:06:21;;;;;;;1.08;0.47;;;;;;;;;;4946362;28;20042;-85
2022/05/22 11:09:08;;;;;;;0.53;0.10;;;;;;;;;;4952830;28;20070;-83
2022/05/22 11:11:35;;;;;;;0.30;0.15;;;;;;;;;;4883860;29;20862;-86
2022/05/22 11:14:20;;;;;;;0.32;0.20;;;;;;;;;;4869941;29;20048;-83
2022/05/22 11:16:47;;;;;;;0.93;0.40;;;;;;;;;;4880923;29;20044;-85
2022/05/22 11:19:23;;;;;;;0.50;0.30;;;;;;;;;;4898382;29;20448;-82
2022/05/22 11:22:27;;;;;;;2.00;0.70;;;;;;;;;;4878714;29;20295;-83
2022/05/22 11:25:11;;;;;;;0.45;0.10;;;;;;;;;;4896191;29;20207;-81
2022/05/22 11:28:17;;;;;;;0.82;0.35;;;;;;;;;;4883784;29;20037;-84
2022/05/22 11:31:16;;;;;;;0.32;0.22;;;;;;;;;;4890551;29;20040;-83
2022/05/22 11:34:13;;;;;;;0.55;0.20;;;;;;;;;;4895178;29;20060;-85
2022/05/22 11:36:46;;;;;;;0.05;0.05;;;;;;;;;;4879150;29;20801;-83
2022/05/22 11:39:32;;;;;;;0.17;0.10;;;;;;;;;;4898377;29;20071;-86
2022/05/22 11:42:23;;;;;;;0.28;0.20;;;;;;;;;;4883397;29;20042;-83
2022/05/22 11:44:55;;;;;;;1.48;0.30;;;;;;;;;;4897885;29;20042;-82
2022/05/22 11:47:41;;;;;;;0.13;0.08;;;;;;;;;;4881846;29;20043;-85
2022/05/22 11:50:28;;;;;;;0.00;0.00;;;;;;;;;;4955208;28;20049;-80
2022/05/22 11:53:02;;;;;;;0.38;0.20;;;;;;;;;;4965244;28;20540;-79
2022/05/22 11:55:59;;;;;;;1.00;0.50;;;;;;;;;;4966883;28;20073;-83
2022/05/22 11:58:43;;;;;;;0.70;0.20;;;;;;;;;;4973216;28;20043;-83
2022/05/22 12:01:17;;;;;;;0.22;0.15;;;;;;;;;;4969342;28;20285;-83
2022/05/22 12:04:31;;;;;;;1.25;0.20;;;;;;;;;;4947465;28;20040;-80
2022/05/22 12:06:58;;;;;;;0.35;0.10;;;;;;;;;;4918109;28;20043;-80
2022/05/22 12:09:50;;;;;;;0.15;0.10;;;;;;;;;;4944975;28;20046;-82
2022/05/22 12:12:34;;;;;;;0.10;0.05;;;;;;;;;;4898241;29;20518;-79
2022/05/22 12:15:21;;;;;;;0.30;0.10;;;;;;;;;;4899973;29;20139;-80
2022/05/22 12:17:53;;;;;;;1.08;0.30;;;;;;;;;;4902092;29;20040;-78
2022/05/22 12:20:32;;;;;;;0.00;0.00;;;;;;;;;;4895389;29;20044;-78
2022/05/22 12:23:19;;;;;;;0.13;0.10;;;;;;;;;;4900536;29;20811;-78
2022/05/22 12:25:50;;;;;;;0.10;0.00;;;;;;;;;;4899036;29;20147;-78
2022/05/22 12:28:24;;;;;;;2.28;0.20;;;;;;;;;;4882229;29;20073;-83
2022/05/22 12:30:51;;;;;;;3.20;0.50;;;;;;;;;;4897020;29;20040;-84
2022/05/22 12:33:17;;;;;;;0.20;0.20;;;;;;;;;;4880939;29;20334;-84
2022/05/22 12:35:43;;;;;;;0.43;0.25;;;;;;;;;;4897217;29;20148;-84
2022/05/22 12:38:13;;;;;;;0.45;0.15;;;;;;;;;;4881826;29;20444;-85
2022/05/22 12:40:48;;;;;;;0.52;0.25;;;;;;;;;;4872617;29;20722;-82
2022/05/22 12:43:17;;;;;;;0.10;0.10;;;;;;;;;;4896939;29;20037;-83
2022/05/22 12:45:43;;;;;;;0.65;0.15;;;;;;;;;;4883245;29;20829;-84
2022/05/22 12:48:35;;;;;;;0.22;0.10;;;;;;;;;;4875259;28;20540;-84
2022/05/22 12:51:31;;;;;;;0.90;0.30;;;;;;;;;;4939925;28;20039;-84
2022/05/22 12:54:21;;;;;;;0.55;0.20;;;;;;;;;;4944836;28;20046;-84
2022/05/22 12:56:47;;;;;;;0.95;0.25;;;;;;;;;;4944275;28;20035;-85
2022/05/22 12:59:15;;;;;;;0.22;0.15;;;;;;;;;;4932957;28;20039;-84
2022/05/22 13:01:45;;;;;;;0.22;0.10;;;;;;;;;;4942448;28;20080;-84
2022/05/22 13:04:17;;;;;;;0.28;0.13;;;;;;;;;;4933019;28;20057;-85
2022/05/22 13:07:07;;;;;;;0.57;0.17;;;;;;;;;;4967584;28;20042;-84
2022/05/22 13:09:51;;;;;;;1.75;0.50;;;;;;;;;;4965039;28;20033;-84
2022/05/22 13:12:16;;;;;;;0.08;0.08;;;;;;;;;;4968664;28;20037;-84
2022/05/22 13:14:47;;;;;;;0.20;0.10;;;;;;;;;;4967233;28;20495;-83
2022/05/22 13:17:15;;;;;;;0.10;0.00;;;;;;;;;;4963675;28;20565;-83
2022/05/22 13:19:52;;;;;;;0.35;0.17;;;;;;;;;;4954556;28;20066;-80
2022/05/22 13:22:33;;;;;;;0.08;0.00;;;;;;;;;;4950847;28;20097;-79
2022/05/22 13:24:59;;;;;;;0.20;0.17;;;;;;;;;;4952102;28;20039;-84
2022/05/22 13:27:46;;;;;;;0.60;0.13;;;;;;;;;;4949986;28;20093;-88
2022/05/22 13:30:18;;;;;;;0.10;0.10;;;;;;;;;;4977145;28;20047;-86
2022/05/22 13:32:53;;;;;;;0.00;0.00;;;;;;;;;;4951882;28;20039;-80
2022/05/22 13:35:25;;;;;;;1.55;0.15;;;;;;;;;;4963586;28;20576;-83
2022/05/22 13:37:53;;;;;;;0.10;0.00;;;;;;;;;;4969684;28;20515;-80
2022/05/22 13:40:19;;;;;;;;;;;;;;;;;;4947436;28;20035;-85
2022/05/22 13:43:00;;;;;;;0.00;0.00;;;;;;;;;;4965537;28;20301;-85
2022/05/22 13:45:34;;;;;;;0.10;0.05;;;;;;;;;;4961176;28;20901;-85
2022/05/22 13:48:25;;;;;;;0.10;0.00;;;;;;;;;;4959398;28;20043;-88
2022/05/22 13:53:49;;;;;;;0.75;0.17;;;;;;;;;;4961706;28;20086;-82
2022/05/22 13:56:15;;;;;;;1.33;0.10;;;;;;;;;;4961856;28;20103;-88
2022/05/22 13:58:41;;;;;;;0.30;0.10;;;;;;;;;;4945230;28;20038;-85
2022/05/22 14:01:33;;;;;;;0.05;0.00;;;;;;;;;;4946394;28;20426;-84
2022/05/22 14:04:00;;;;;;;0.17;0.10;;;;;;;;;;4951633;28;20137;-87
2022/05/22 14:06:32;;;;;;;0.40;0.15;;;;;;;;;;4929880;28;20035;-84
2022/05/22 14:08:58;;;;;;;0.13;0.10;;;;;;;;;;4927255;28;20043;-85
2022/05/22 14:11:28;;;;;;;0.00;0.00;;;;;;;;;;4958626;28;20035;-87
2022/05/22 14:14:07;;;;;;;0.00;0.00;;;;;;;;;;4933164;28;20126;-85
2022/05/22 14:16:38;;;;;;;1.38;0.20;;;;;;;;;;4935756;28;20150;-85
2022/05/22 14:19:09;;;;;;;0.10;0.03;;;;;;;;;;4943985;28;20700;-86
2022/05/22 14:21:46;;;;;;;0.10;0.10;;;;;;;;;;4919427;28;20043;-86
2022/05/22 14:27:38;;;;;;;0.50;0.20;;;;;;;;;;4958445;28;20577;-86
2022/05/22 14:30:10;;;;;;;0.40;0.15;;;;;;;;;;4926696;28;20231;-85
2022/05/22 14:32:36;;;;;;;0.00;0.00;;;;;;;;;;4945277;28;20040;-87
2022/05/22 14:35:22;;;;;;;0.30;0.10;;;;;;;;;;4927834;28;20039;-88
2022/05/22 14:37:48;;;;;;;0.32;0.20;;;;;;;;;;4945782;28;20144;-85
2022/05/22 14:40:26;;;;;;;0.65;0.10;;;;;;;;;;4943788;28;20066;-85
2022/05/22 14:43:01;;;;;;;1.75;0.20;;;;;;;;;;4928591;28;20446;-83
2022/05/22 14:45:26;;;;;;;0.22;0.10;;;;;;;;;;4944225;28;20039;-86
2022/05/22 14:47:52;;;;;;;1.03;0.30;;;;;;;;;;4951192;28;20089;-85
2022/05/22 14:50:19;;;;;;;0.00;0.00;;;;;;;;;;4945226;28;20608;-86
2022/05/22 14:52:49;;;;;;;0.40;0.13;;;;;;;;;;4946218;28;20039;-87
2022/05/22 14:55:26;;;;;;;0.38;0.10;;;;;;;;;;4931068;28;20031;-86
2022/05/22 14:58:25;;;;;;;0.00;0.00;;;;;;;;;;4936157;28;20035;-85
2022/05/22 15:00:56;;;;;;;0.95;0.47;;;;;;;;;;4946563;28;20387;-85
2022/05/22 15:03:40;;;;;;;1.42;0.20;;;;;;;;;;4939983;28;20090;-85
2022/05/22 15:06:05;;;;;;;0.30;0.20;;;;;;;;;;4954048;28;20093;-85
2022/05/22 15:08:40;;;;;;;0.30;0.10;;;;;;;;;;4946833;28;20069;-83
2022/05/22 15:11:17;;;;;;;0.45;0.13;;;;;;;;;;4953829;28;20039;-84
2022/05/22 15:14:02;;;;;;;0.17;0.05;;;;;;;;;;4966590;28;20118;-84
2022/05/22 15:16:46;;;;;;;0.20;0.10;;;;;;;;;;4945979;28;20482;-86
2022/05/22 15:25:29;;;;;;;0.17;0.03;;;;;;;;;;4966574;28;20450;-83
2022/05/22 15:28:11;;;;;;;0.38;0.17;;;;;;;;;;4962270;28;20592;-83
2022/05/22 15:30:40;;;;;;;0.52;0.22;;;;;;;;;;4942125;28;20122;-85